createdAt,value
2022-11-12T00:01:10.535Z,12.24
2022-11-12T00:03:38.288Z,10.49
2022-11-12T00:06:06.089Z,11.44
2022-11-12T00:08:33.845Z,11.27
2022-11-12T00:11:01.594Z,12.19
2022-11-12T00:13:29.557Z,10.88
2022-11-12T00:15:57.849Z,10.20
2022-11-12T00:18:27.458Z,12.13
2022-11-12T00:20:55.403Z,10.21
2022-11-12T00:23:23.235Z,11.72
2022-11-12T00:25:59.348Z,11.02
2022-11-12T00:28:27.399Z,12.05
2022-11-12T00:30:55.568Z,11.38
2022-11-12T00:33:23.365Z,11.35
2022-11-12T00:35:52.635Z,11.15
2022-11-12T00:38:20.408Z,10.97
2022-11-12T00:40:48.104Z,11.99
2022-11-12T00:43:15.831Z,11.60
2022-11-12T00:45:44.112Z,10.02
2022-11-12T00:48:11.871Z,9.47
2022-11-12T00:50:39.669Z,11.55
2022-11-12T00:53:08.796Z,10.80
2022-11-12T00:55:36.466Z,11.48
2022-11-12T00:58:04.255Z,9.97
2022-11-12T01:00:32.099Z,11.85
2022-11-12T01:02:59.915Z,9.63
2022-11-12T01:05:27.752Z,11.81
2022-11-12T01:07:56.353Z,11.42
2022-11-12T01:10:25.539Z,11.22
2022-11-12T01:12:53.301Z,11.77
2022-11-12T01:15:21.208Z,11.08
2022-11-12T01:17:49.091Z,9.74
2022-11-12T01:20:17.463Z,10.95
2022-11-12T01:22:45.284Z,11.38
2022-11-12T01:25:13.179Z,9.25
2022-11-12T01:27:42.447Z,10.88
2022-11-12T01:30:11.635Z,10.38
2022-11-12T01:32:39.349Z,11.36
2022-11-12T01:35:07.801Z,10.34
2022-11-12T01:37:35.628Z,10.63
2022-11-12T01:40:03.487Z,11.18
2022-11-12T01:42:31.496Z,10.28
2022-11-12T01:45:00.664Z,10.42
2022-11-12T01:47:29.070Z,10.85
2022-11-12T01:49:57.961Z,10.12
2022-11-12T01:52:27.484Z,9.99
2022-11-12T01:54:56.301Z,11.55
2022-11-12T01:57:29.494Z,11.18
2022-11-12T02:00:04.402Z,11.51
2022-11-12T02:02:32.337Z,10.62
2022-11-12T02:05:01.380Z,10.55
2022-11-12T02:07:29.146Z,9.92
2022-11-12T02:09:57.647Z,10.61
2022-11-12T02:12:42.994Z,11.43
2022-11-12T02:15:12.422Z,9.50
2022-11-12T02:17:40.352Z,11.37
2022-11-12T02:20:10.924Z,8.10
2022-11-12T02:22:40.138Z,9.00
2022-11-12T02:25:09.679Z,10.23
2022-11-12T02:27:37.450Z,10.97
2022-11-12T02:30:06.009Z,9.27
2022-11-12T02:32:33.732Z,11.22
2022-11-12T02:35:01.599Z,10.43
2022-11-12T02:37:29.320Z,10.55
2022-11-12T02:39:58.416Z,9.36
2022-11-12T02:42:26.158Z,9.53
2022-11-12T02:44:53.871Z,10.87
2022-11-12T02:47:22.040Z,9.34
2022-11-12T02:49:49.776Z,9.26
2022-11-12T02:52:17.595Z,10.04
2022-11-12T02:54:45.363Z,9.53
2022-11-12T02:57:14.519Z,10.26
2022-11-12T02:59:42.260Z,10.53
2022-11-12T03:02:09.909Z,10.45
2022-11-12T03:04:37.682Z,10.92
2022-11-12T03:07:05.514Z,11.14
2022-11-12T03:09:33.300Z,11.02
2022-11-12T03:12:01.115Z,11.11
2022-11-12T03:14:30.213Z,10.32
2022-11-12T03:16:58.012Z,10.08
2022-11-12T03:19:25.826Z,10.77
2022-11-12T03:21:53.575Z,11.06
2022-11-12T03:24:21.654Z,10.19
2022-11-12T03:26:49.444Z,10.03
2022-11-12T03:29:17.495Z,9.50
2022-11-12T03:31:46.723Z,11.03
2022-11-12T03:34:14.661Z,10.35
2022-11-12T03:36:42.526Z,10.03
2022-11-12T03:42:25.658Z,9.26
2022-11-12T03:44:53.410Z,9.06
2022-11-12T03:47:22.765Z,8.96
2022-11-12T03:49:50.505Z,8.48
2022-11-12T03:52:18.267Z,9.14
2022-11-12T03:54:46.120Z,10.83
2022-11-12T03:57:13.964Z,9.68
2022-11-12T03:59:41.865Z,9.24
2022-11-12T04:02:14.587Z,8.90
2022-11-12T04:05:01.400Z,8.67
2022-11-12T04:07:46.656Z,9.27
2022-11-12T04:10:46.656Z,10.64
2022-11-12T04:13:29.463Z,8.64
2022-11-12T04:16:19.428Z,10.58
2022-11-12T04:19:05.279Z,10.56
2022-11-12T04:21:57.213Z,9.07
2022-11-12T04:24:44.133Z,9.50
2022-11-12T04:28:12.384Z,10.50
2022-11-12T04:30:40.092Z,9.52
2022-11-12T04:33:07.826Z,9.79
2022-11-12T04:35:35.614Z,9.17
2022-11-12T04:38:04.925Z,8.83
2022-11-12T04:40:50.144Z,8.78
2022-11-12T04:43:36.034Z,9.76
2022-11-12T04:46:04.200Z,8.82
2022-11-12T04:48:32.041Z,10.00
2022-11-12T04:51:00.436Z,10.40
2022-11-12T04:53:29.652Z,8.62
2022-11-12T04:55:58.275Z,8.72
2022-11-12T04:58:26.591Z,8.59
2022-11-12T05:00:54.621Z,9.65
2022-11-12T05:03:22.393Z,9.66
2022-11-12T05:05:50.294Z,9.13
2022-11-12T05:08:18.242Z,7.51
2022-11-12T05:10:47.395Z,9.62
2022-11-12T05:13:15.240Z,8.43
2022-11-12T05:15:44.772Z,9.24
2022-11-12T05:18:12.586Z,9.61
2022-11-12T05:20:40.385Z,9.27
2022-11-12T05:23:08.312Z,8.27
2022-11-12T05:25:36.442Z,9.14
2022-11-12T05:28:07.218Z,7.55
2022-11-12T05:30:35.977Z,8.28
2022-11-12T05:33:03.973Z,9.45
2022-11-12T05:35:32.162Z,9.17
2022-11-12T05:38:00.116Z,9.31
2022-11-12T05:40:28.155Z,7.98
2022-11-12T05:42:56.157Z,8.15
2022-11-12T05:45:25.685Z,10.18
2022-11-12T05:47:53.640Z,10.10
2022-11-12T05:50:21.547Z,9.77
2022-11-12T05:52:49.490Z,9.11
2022-11-12T05:55:20.641Z,8.14
2022-11-12T05:57:48.675Z,9.02
2022-11-12T06:00:17.770Z,7.91
2022-11-12T06:02:47.199Z,9.06
2022-11-12T06:05:15.134Z,10.11
2022-11-12T06:07:42.951Z,8.31
2022-11-12T06:10:13.689Z,8.43
2022-11-12T06:12:44.072Z,9.41
2022-11-12T06:15:12.227Z,9.24
2022-11-12T06:17:40.083Z,7.81
2022-11-12T06:20:13.545Z,8.13
2022-11-12T06:22:41.554Z,9.26
2022-11-12T06:25:12.187Z,9.34
2022-11-12T06:27:40.124Z,9.94
2022-11-12T06:30:08.865Z,8.72
2022-11-12T06:32:37.906Z,9.11
2022-11-12T06:35:06.295Z,8.73
2022-11-12T06:37:35.522Z,9.36
2022-11-12T06:40:13.296Z,8.96
2022-11-12T06:42:41.294Z,7.92
2022-11-12T06:45:09.904Z,9.19
2022-11-12T06:47:37.858Z,7.92
2022-11-12T06:50:06.368Z,8.70
2022-11-12T06:52:35.672Z,8.04
2022-11-12T06:55:08.298Z,6.92
2022-11-12T06:57:36.648Z,7.16
2022-11-12T07:00:05.050Z,9.92
2022-11-12T07:02:32.984Z,8.18
2022-11-12T07:05:00.777Z,8.61
2022-11-12T07:07:29.732Z,7.42
2022-11-12T07:09:59.313Z,8.59
2022-11-12T07:12:27.097Z,9.27
2022-11-12T07:14:56.251Z,8.16
2022-11-12T07:17:24.065Z,8.85
2022-11-12T07:19:51.861Z,8.22
2022-11-12T07:22:19.629Z,9.26
2022-11-12T07:24:47.452Z,8.98
2022-11-12T07:27:16.631Z,10.09
2022-11-12T07:29:48.950Z,9.86
2022-11-12T07:32:17.262Z,8.96
2022-11-12T07:34:45.036Z,9.94
2022-11-12T07:37:12.917Z,9.89
2022-11-12T07:39:40.886Z,11.03
2022-11-12T07:42:08.751Z,9.91
2022-11-12T07:44:38.032Z,13.68
2022-11-12T07:47:05.841Z,13.03
2022-11-12T07:49:33.757Z,15.22
2022-11-12T07:52:01.686Z,15.68
2022-11-12T07:54:29.651Z,15.83
2022-11-12T07:56:57.618Z,15.80
2022-11-12T07:59:25.854Z,17.00
2022-11-12T08:01:55.223Z,17.91
2022-11-12T08:04:23.090Z,19.26
2022-11-12T08:06:51.172Z,17.65
2022-11-12T08:09:19.382Z,17.80
2022-11-12T08:11:47.354Z,20.14
2022-11-12T08:14:15.442Z,20.21
2022-11-12T08:16:43.379Z,20.14
2022-11-12T08:19:12.717Z,20.83
2022-11-12T08:21:40.540Z,21.93
2022-11-12T08:24:09.173Z,22.50
2022-11-12T08:26:37.154Z,22.57
2022-11-12T08:29:08.699Z,23.15
2022-11-12T08:31:36.905Z,23.74
2022-11-12T08:34:12.614Z,24.47
2022-11-12T08:36:43.162Z,23.67
2022-11-12T08:39:11.376Z,22.67
2022-11-12T08:41:40.465Z,25.46
2022-11-12T08:44:09.082Z,25.18
2022-11-12T08:46:37.495Z,25.09
2022-11-12T08:49:06.101Z,26.57
2022-11-12T08:51:36.139Z,26.58
2022-11-12T08:54:05.784Z,27.77
2022-11-12T08:56:34.148Z,27.79
2022-11-12T08:59:06.328Z,28.25
2022-11-12T09:01:35.572Z,28.23
2022-11-12T09:04:03.820Z,27.51
2022-11-12T09:06:31.826Z,28.73
2022-11-12T09:08:59.767Z,28.35
2022-11-12T09:11:30.015Z,29.84
2022-11-12T09:13:58.486Z,29.78
2022-11-12T09:16:26.959Z,28.96
2022-11-12T09:18:55.047Z,29.43
2022-11-12T09:21:26.369Z,30.82
2022-11-12T09:23:55.982Z,31.39
2022-11-12T09:26:23.891Z,31.16
2022-11-12T09:28:56.113Z,30.46
2022-11-12T09:31:29.013Z,31.63
2022-11-12T09:33:56.856Z,32.22
2022-11-12T09:36:24.733Z,32.62
2022-11-12T09:38:52.590Z,33.01
2022-11-12T09:41:29.054Z,33.21
2022-11-12T09:43:59.895Z,32.85
2022-11-12T09:46:35.669Z,32.35
2022-11-12T09:49:08.030Z,32.85
2022-11-12T09:51:37.590Z,34.20
2022-11-12T09:54:08.060Z,33.85
2022-11-12T09:56:35.830Z,35.02
2022-11-12T09:59:05.279Z,35.57
2022-11-12T10:01:40.117Z,35.90
2022-11-12T10:04:17.708Z,37.16
2022-11-12T10:06:47.357Z,35.91
2022-11-12T10:09:16.552Z,37.17
2022-11-12T10:12:12.055Z,37.02
2022-11-12T10:14:58.902Z,37.48
2022-11-12T10:17:29.949Z,39.24
2022-11-12T10:20:07.604Z,39.07
2022-11-12T10:22:43.149Z,37.84
2022-11-12T10:25:14.743Z,38.01
2022-11-12T10:27:43.187Z,38.65
2022-11-12T10:30:17.490Z,38.61
2022-11-12T10:32:45.881Z,38.51
2022-11-12T10:35:15.969Z,39.17
2022-11-12T10:37:47.670Z,39.26
2022-11-12T10:40:28.576Z,39.14
2022-11-12T10:43:00.169Z,38.36
2022-11-12T10:45:29.875Z,39.30
2022-11-12T10:47:57.707Z,39.63
2022-11-12T10:50:27.129Z,39.56
2022-11-12T10:52:57.563Z,39.60
2022-11-12T10:55:26.409Z,38.83
2022-11-12T10:58:08.418Z,40.04
2022-11-12T11:00:37.724Z,39.29
2022-11-12T11:03:08.328Z,39.32
2022-11-12T11:05:37.122Z,38.49
2022-11-12T11:08:05.671Z,37.60
2022-11-12T11:10:37.545Z,38.14
2022-11-12T11:13:27.757Z,37.02
2022-11-12T11:16:01.502Z,36.94
2022-11-12T11:18:29.839Z,37.85
2022-11-12T11:21:05.997Z,37.71
2022-11-12T11:23:38.658Z,37.84
2022-11-12T11:26:15.554Z,37.63
2022-11-12T11:28:47.295Z,36.82
2022-11-12T11:31:20.625Z,37.75
2022-11-12T11:33:49.660Z,36.88
2022-11-12T11:36:23.010Z,36.15
2022-11-12T11:38:56.920Z,36.97
2022-11-12T11:41:38.130Z,35.84
2022-11-12T11:44:13.737Z,35.86
2022-11-12T11:46:50.822Z,36.11
2022-11-12T11:49:47.170Z,35.63
2022-11-12T11:52:25.600Z,36.24
2022-11-12T11:55:01.092Z,37.60
2022-11-12T11:57:30.229Z,38.73
2022-11-12T12:00:25.427Z,38.69
2022-11-12T12:03:20.984Z,39.26
2022-11-12T12:05:56.506Z,40.44
2022-11-12T12:08:27.598Z,40.23
2022-11-12T12:11:09.114Z,39.80
2022-11-12T12:13:43.823Z,39.39
2022-11-12T12:16:21.045Z,38.85
2022-11-12T12:18:56.138Z,37.55
2022-11-12T12:21:26.062Z,36.44
2022-11-12T12:23:54.765Z,35.20
2022-11-12T12:26:24.822Z,35.37
2022-11-12T12:28:54.377Z,35.23
2022-11-12T12:31:23.877Z,33.55
2022-11-12T12:33:54.341Z,32.12
2022-11-12T12:36:24.686Z,31.49
2022-11-12T12:41:45.299Z,29.96
2022-11-12T12:44:16.146Z,28.65
2022-11-12T12:47:06.473Z,29.58
2022-11-12T12:49:38.702Z,26.59
2022-11-12T12:52:07.334Z,25.82
2022-11-12T12:55:16.293Z,28.30
2022-11-12T12:57:44.988Z,25.63
2022-11-12T13:00:31.641Z,25.87
2022-11-12T13:03:00.138Z,24.53
2022-11-12T13:05:31.536Z,25.01
2022-11-12T13:08:02.655Z,25.14
2022-11-12T13:10:56.241Z,24.21
2022-11-12T13:13:35.175Z,26.20
2022-11-12T13:16:05.802Z,24.66
2022-11-12T13:19:08.673Z,26.74
2022-11-12T13:21:47.878Z,25.25
2022-11-12T13:24:18.079Z,23.69
2022-11-12T13:26:58.176Z,26.53
2022-11-12T13:29:42.676Z,26.44
2022-11-12T13:32:41.846Z,26.34
2022-11-12T13:35:28.637Z,25.49
2022-11-12T13:38:00.413Z,25.14
2022-11-12T13:40:40.160Z,23.10
2022-11-12T13:43:24.279Z,24.13
2022-11-12T13:45:54.142Z,22.78
2022-11-12T13:48:25.036Z,24.74
2022-11-12T13:50:58.197Z,23.16
2022-11-12T13:53:30.197Z,25.04
2022-11-12T13:55:58.475Z,24.75
2022-11-12T13:58:30.788Z,23.97
2022-11-12T14:00:59.589Z,22.83
2022-11-12T14:03:29.770Z,24.58
2022-11-12T14:05:57.925Z,24.36
2022-11-12T14:08:58.964Z,23.66
2022-11-12T14:11:42.461Z,23.19
2022-11-12T14:14:16.413Z,24.02
2022-11-12T14:16:58.285Z,23.34
2022-11-12T14:19:34.115Z,21.98
2022-11-12T14:22:03.080Z,23.31
2022-11-12T14:24:33.374Z,22.47
2022-11-12T14:27:01.241Z,22.93
2022-11-12T14:29:34.628Z,22.30
2022-11-12T14:32:03.970Z,22.56
2022-11-12T14:34:33.521Z,23.65
2022-11-12T14:37:01.826Z,22.82
2022-11-12T14:39:30.036Z,23.08
2022-11-12T14:41:59.584Z,23.04
2022-11-12T14:44:38.333Z,22.98
2022-11-12T14:47:06.407Z,20.89
2022-11-12T14:49:39.356Z,21.55
2022-11-12T14:52:12.010Z,21.21
2022-11-12T14:54:44.003Z,21.73
2022-11-12T14:57:13.681Z,22.54
2022-11-12T14:59:41.438Z,22.80
2022-11-12T15:05:02.328Z,22.69
2022-11-12T15:07:31.325Z,22.42
2022-11-12T15:09:59.408Z,22.57
2022-11-12T15:12:30.757Z,21.04
2022-11-12T15:15:10.928Z,20.56
2022-11-12T15:17:38.574Z,21.30
2022-11-12T15:20:07.583Z,22.19
2022-11-12T15:22:36.081Z,22.11
2022-11-12T15:25:21.041Z,21.48
2022-11-12T15:28:00.865Z,21.89
2022-11-12T15:30:42.765Z,19.04
2022-11-12T15:33:19.138Z,21.05
2022-11-12T15:35:47.150Z,21.60
2022-11-12T15:38:16.355Z,21.27
2022-11-12T15:40:45.722Z,20.79
2022-11-12T15:43:18.315Z,18.38
2022-11-12T15:45:49.645Z,21.26
2022-11-12T15:48:21.997Z,21.21
2022-11-12T15:51:10.465Z,19.36
2022-11-12T15:53:38.573Z,20.08
2022-11-12T15:56:07.101Z,18.34
2022-11-12T15:58:40.486Z,19.34
2022-11-12T16:01:08.564Z,19.57
2022-11-12T16:06:18.685Z,18.04
2022-11-12T16:08:46.881Z,19.92
2022-11-12T16:11:28.794Z,17.74
2022-11-12T16:14:02.896Z,20.55
2022-11-12T16:16:30.976Z,18.60
2022-11-12T16:18:58.738Z,18.18
2022-11-12T16:21:27.575Z,20.40
2022-11-12T16:23:55.514Z,19.43
2022-11-12T16:26:27.294Z,20.26
2022-11-12T16:28:55.243Z,18.46
2022-11-12T16:31:26.506Z,18.76
2022-11-12T16:33:54.488Z,19.50
2022-11-12T16:36:23.344Z,17.58
2022-11-12T16:38:51.250Z,19.82
2022-11-12T16:41:18.881Z,19.74
2022-11-12T16:43:46.775Z,19.37
2022-11-12T16:46:17.012Z,19.07
2022-11-12T16:48:46.171Z,19.48
2022-11-12T16:51:20.173Z,19.41
2022-11-12T16:53:50.060Z,19.32
2022-11-12T16:56:18.905Z,19.12
2022-11-12T16:58:48.269Z,19.05
2022-11-12T17:01:18.870Z,18.96
2022-11-12T17:03:48.182Z,18.66
2022-11-12T17:06:16.416Z,17.95
2022-11-12T17:08:45.016Z,18.77
2022-11-12T17:11:13.075Z,18.69
2022-11-12T17:13:41.141Z,15.44
2022-11-12T17:16:09.116Z,17.86
2022-11-12T17:18:37.299Z,17.71
2022-11-12T17:21:19.503Z,18.25
2022-11-12T17:23:47.320Z,17.70
2022-11-12T17:26:20.292Z,17.75
2022-11-12T17:28:48.512Z,18.25
2022-11-12T17:31:18.321Z,16.65
2022-11-12T17:33:47.086Z,17.57
2022-11-12T17:36:17.073Z,16.87
2022-11-12T17:38:44.788Z,16.83
2022-11-12T17:41:12.674Z,16.98
2022-11-12T17:43:40.756Z,16.89
2022-11-12T17:46:10.266Z,17.06
2022-11-12T17:48:38.440Z,16.30
2022-11-12T17:51:11.064Z,16.36
2022-11-12T17:53:40.272Z,15.55
2022-11-12T17:56:08.751Z,17.23
2022-11-12T17:58:36.785Z,16.80
2022-11-12T18:01:06.318Z,16.59
2022-11-12T18:03:34.219Z,16.21
2022-11-12T18:06:02.699Z,16.10
2022-11-12T18:08:30.482Z,16.29
2022-11-12T18:10:59.756Z,16.95
2022-11-12T18:13:27.870Z,16.09
2022-11-12T18:15:55.878Z,16.45
2022-11-12T18:18:23.588Z,16.77
2022-11-12T18:20:51.647Z,16.54
2022-11-12T18:23:19.313Z,16.82
2022-11-12T18:25:47.263Z,16.18
2022-11-12T18:28:16.372Z,16.49
2022-11-12T18:30:44.254Z,16.49
2022-11-12T18:33:11.968Z,16.47
2022-11-12T18:35:40.257Z,16.48
2022-11-12T18:38:07.958Z,16.57
2022-11-12T18:40:35.707Z,17.06
2022-11-12T18:43:03.442Z,17.01
2022-11-12T18:45:32.723Z,15.53
2022-11-12T18:48:00.432Z,16.13
2022-11-12T18:50:28.180Z,15.85
2022-11-12T18:52:55.947Z,16.33
2022-11-12T18:55:23.642Z,16.22
2022-11-12T18:57:51.355Z,16.78
2022-11-12T19:00:19.331Z,15.64
2022-11-12T19:02:48.679Z,14.47
2022-11-12T19:05:16.939Z,16.34
2022-11-12T19:15:00.704Z,16.75
2022-11-12T19:18:50.568Z,16.69
2022-11-12T19:25:23.157Z,16.57
2022-11-12T19:28:34.467Z,16.56
2022-11-12T19:31:15.388Z,15.47
2022-11-12T19:34:49.528Z,16.46
2022-11-12T19:37:36.480Z,14.62
2022-11-12T20:03:19.697Z,16.15
2022-11-12T20:06:42.497Z,16.14
2022-11-12T20:10:34.055Z,15.19
2022-11-12T20:14:38.794Z,14.95
2022-11-12T20:25:06.552Z,14.88
2022-11-12T21:17:00.683Z,14.30
2022-11-12T22:38:08.077Z,13.86
2022-11-12T22:40:35.869Z,14.13
2022-11-12T22:43:03.631Z,14.15
2022-11-12T22:45:31.515Z,12.62
2022-11-12T22:47:59.950Z,11.04
2022-11-12T22:50:27.724Z,13.54
2022-11-12T22:52:56.147Z,14.08
2022-11-12T22:55:25.240Z,12.48
2022-11-12T22:57:53.079Z,12.41
2022-11-12T23:00:20.975Z,12.11
2022-11-12T23:02:48.626Z,13.89
2022-11-12T23:05:16.382Z,13.23
2022-11-12T23:07:44.027Z,13.18
2022-11-12T23:10:11.852Z,13.76
2022-11-12T23:12:40.959Z,11.80
2022-11-12T23:15:09.857Z,13.73
2022-11-12T23:17:37.746Z,12.04
2022-11-12T23:20:06.111Z,12.90
2022-11-12T23:22:34.157Z,12.02
2022-11-12T23:25:02.020Z,11.43
2022-11-12T23:27:29.877Z,12.53
2022-11-12T23:29:58.966Z,10.78
2022-11-12T23:32:26.777Z,12.26
2022-11-12T23:34:54.417Z,12.63
2022-11-12T23:37:22.102Z,12.27
2022-11-12T23:39:50.178Z,12.50
2022-11-12T23:42:18.276Z,12.68
2022-11-12T23:44:46.866Z,12.80
2022-11-12T23:47:16.495Z,11.46
2022-11-12T23:49:44.706Z,12.11
2022-11-12T23:52:13.173Z,12.96
2022-11-12T23:54:41.484Z,10.49
2022-11-12T23:57:09.633Z,12.12
2022-11-12T23:59:37.746Z,10.43
